Time;durP1;ratioP1;P1;durP2;ratioP2;P2;SDS_P1;SDS_P2;PMS_P1;PMS_P2;Temp;Humidity;BMP_temperature;BMP_pressure;BME280_temperature;BME280_humidity;BME280_pressure;Samples;Min_cycle;Max_cycle;Signal;HPM_P1;HPM_P2
2022/08/02 00:01:41;;;;;;;;;;;;;;;19.08;81.81;96718.50;5073875;28;19964;-73
2022/08/02 00:04:07;;;;;;;;;;;;;;;19.05;81.90;96719.84;5073121;28;19973;-73
2022/08/02 00:06:34;;;;;;;;;;;;;;;19.01;82.12;96718.78;5073690;28;19970;-73
2022/08/02 00:09:00;;;;;;;;;;;;;;;18.99;81.34;96715.59;5073858;28;19956;-73
2022/08/02 00:11:25;;;;;;;;;;;;;;;18.97;81.27;96717.69;5073744;28;19967;-73
2022/08/02 00:13:51;;;;;;;;;;;;;;;18.94;81.00;96715.56;5073353;28;19962;-73
2022/08/02 00:16:17;;;;;;;;;;;;;;;18.92;81.49;96723.00;5073610;28;20459;-73
2022/08/02 00:18:44;;;;;;;;;;;;;;;18.89;81.32;96723.53;5073198;28;19993;-73
2022/08/02 00:21:09;;;;;;;;;;;;;;;18.85;81.41;96724.06;5073784;28;19974;-73
2022/08/02 00:23:35;;;;;;;;;;;;;;;18.82;80.71;96721.16;5074055;28;20327;-73
2022/08/02 00:26:01;;;;;;;;;;;;;;;18.79;80.96;96721.66;5073510;28;19978;-73
2022/08/02 00:28:27;;;;;;;;;;;;;;;18.76;81.32;96724.81;5074169;28;19961;-73
2022/08/02 00:30:53;;;;;;;;;;;;;;;18.71;81.24;96714.16;5073545;28;19961;-73
2022/08/02 00:33:19;;;;;;;;;;;;;;;18.65;83.13;96713.38;5073574;28;20438;-74
2022/08/02 00:35:46;;;;;;;;;;;;;;;18.57;82.01;96724.53;5073545;28;20008;-73
2022/08/02 00:38:12;;;;;;;;;;;;;;;18.51;82.07;96718.38;5073354;28;19955;-73
2022/08/02 00:40:38;;;;;;;;;;;;;;;18.49;81.91;96717.84;5073501;28;19983;-73
2022/08/02 00:43:08;;;;;;;;;;;;;;;18.48;82.30;96718.91;5073445;28;19967;-73
2022/08/02 00:45:36;;;;;;;;;;;;;;;18.45;82.17;96722.09;5073469;28;20412;-73
2022/08/02 00:48:03;;;;;;;;;;;;;;;18.43;81.95;96722.34;5055699;28;20331;-74
2022/08/02 00:50:29;;;;;;;;;;;;;;;18.42;82.10;96722.63;5073212;28;19958;-73
2022/08/02 00:52:56;;;;;;;;;;;;;;;18.39;81.74;96715.16;5073726;28;19963;-72
2022/08/02 00:55:21;;;;;;;;;;;;;;;18.33;82.26;96713.53;5073303;28;19965;-73
2022/08/02 00:57:48;;;;;;;;;;;;;;;18.28;81.85;96717.00;5073275;28;19959;-73
2022/08/02 01:00:14;;;;;;;;;;;;;;;18.25;82.12;96710.34;5073179;28;19973;-73
2022/08/02 01:02:40;;;;;;;;;;;;;;;18.23;82.00;96709.81;5055628;28;20035;-73
2022/08/02 01:05:06;;;;;;;;;;;;;;;18.20;82.52;96705.00;5073095;28;20492;-73
2022/08/02 01:07:32;;;;;;;;;;;;;;;18.18;82.70;96714.28;5073078;28;19976;-73
2022/08/02 01:09:59;;;;;;;;;;;;;;;18.17;82.61;96718.81;5073176;28;19965;-73
2022/08/02 01:12:26;;;;;;;;;;;;;;;18.15;82.53;96728.88;5055020;28;19983;-73
2022/08/02 01:14:52;;;;;;;;;;;;;;;18.13;82.69;96723.03;5073063;28;20023;-73
2022/08/02 01:17:33;;;;;;;;;;;;;;;18.11;82.65;96716.41;5073023;28;19974;-74
2022/08/02 01:20:18;;;;;;;;;;;;;;;18.08;82.78;96716.91;5055110;28;19976;-73
2022/08/02 01:22:56;;;;;;;;;;;;;;;18.06;82.99;96730.44;5073381;28;19971;-73
2022/08/02 01:25:32;;;;;;;;;;;;;;;18.03;83.41;96726.44;5057424;28;19975;-72
2022/08/02 01:28:12;;;;;;;;;;;;;;;18.01;83.79;96727.75;5073205;28;19964;-73
2022/08/02 01:30:40;;;;;;;;;;;;;;;17.96;84.08;96723.22;5074594;28;20404;-73
2022/08/02 01:33:07;;;;;;;;;;;;;;;17.88;83.66;96722.94;5077030;28;19958;-73
2022/08/02 01:35:38;;;;;;;;;;;;;;;17.81;84.70;96726.56;5076348;28;19968;-73
2022/08/02 01:38:10;;;;;;;;;;;;;;;17.80;84.88;96724.16;5076522;28;20343;-73
2022/08/02 01:40:40;;;;;;;;;;;;;;;17.78;85.02;96721.75;5076407;28;19986;-73
2022/08/02 01:43:07;;;;;;;;;;;;;;;17.78;84.38;96727.06;5077019;28;19965;-73
2022/08/02 01:45:34;;;;;;;;;;;;;;;17.80;84.66;96719.66;5076443;28;19952;-73
2022/08/02 01:48:01;;;;;;;;;;;;;;;17.82;83.75;96724.72;5076441;28;19976;-73
2022/08/02 01:50:31;;;;;;;;;;;;;;;17.83;83.37;96731.66;5076387;28;19974;-73
2022/08/02 01:52:58;;;;;;;;;;;;;;;17.83;83.25;96727.16;5075855;28;19990;-74
2022/08/02 01:55:27;;;;;;;;;;;;;;;17.83;83.17;96721.06;5076492;28;19973;-76
2022/08/02 01:57:58;;;;;;;;;;;;;;;17.83;83.37;96724.50;5060562;28;19962;-74
2022/08/02 02:00:25;;;;;;;;;;;;;;;17.81;83.68;96731.09;5076156;28;20460;-73
2022/08/02 02:02:53;;;;;;;;;;;;;;;17.77;82.86;96722.84;5076062;28;19960;-73
2022/08/02 02:05:19;;;;;;;;;;;;;;;17.75;83.07;96721.50;5075983;28;19987;-73
2022/08/02 02:07:48;;;;;;;;;;;;;;;17.71;82.99;96718.56;5076690;28;19971;-73
2022/08/02 02:10:16;;;;;;;;;;;;;;;17.68;83.30;96721.72;5076041;28;20003;-73
2022/08/02 02:12:43;;;;;;;;;;;;;;;17.67;83.37;96716.69;5075997;28;19991;-73
2022/08/02 02:15:11;;;;;;;;;;;;;;;17.63;83.45;96711.88;5075880;28;19960;-73
2022/08/02 02:17:38;;;;;;;;;;;;;;;17.62;83.58;96717.44;5057993;28;19966;-74
2022/08/02 02:20:05;;;;;;;;;;;;;;;17.60;83.46;96722.22;5075708;28;20433;-74
2022/08/02 02:22:31;;;;;;;;;;;;;;;17.58;83.59;96713.72;5075870;28;19971;-73
2022/08/02 02:24:57;;;;;;;;;;;;;;;17.56;83.54;96716.63;5075999;28;19970;-73
2022/08/02 02:27:24;;;;;;;;;;;;;;;17.54;83.87;96716.06;5075650;28;19975;-73
2022/08/02 02:29:50;;;;;;;;;;;;;;;17.53;84.12;96708.34;5075867;28;19963;-73
2022/08/02 02:32:17;;;;;;;;;;;;;;;17.50;83.49;96712.31;5075635;28;19951;-73
2022/08/02 02:34:44;;;;;;;;;;;;;;;17.47;84.04;96704.91;5075716;28;20300;-73
2022/08/02 02:37:19;;;;;;;;;;;;;;;17.46;83.88;96705.94;5075572;28;19969;-73
2022/08/02 02:39:46;;;;;;;;;;;;;;;17.43;83.72;96694.00;5075344;28;19955;-73
2022/08/02 02:42:13;;;;;;;;;;;;;;;17.42;84.08;96691.59;5074869;28;19969;-73
2022/08/02 02:44:40;;;;;;;;;;;;;;;17.40;83.97;96691.84;5075535;28;20330;-73
2022/08/02 02:47:07;;;;;;;;;;;;;;;17.38;83.89;96687.84;5074713;28;19975;-74
2022/08/02 02:49:34;;;;;;;;;;;;;;;17.37;83.57;96686.25;5057627;28;19957;-73
2022/08/02 02:52:00;;;;;;;;;;;;;;;17.34;83.60;96679.59;5075433;28;19978;-73
2022/08/02 02:54:27;;;;;;;;;;;;;;;17.33;83.73;96680.66;5075143;28;19997;-73
2022/08/02 02:56:53;;;;;;;;;;;;;;;17.31;83.55;96685.44;5075007;28;20368;-75
2022/08/02 02:59:19;;;;;;;;;;;;;;;17.29;82.78;96681.44;5074908;28;20419;-74
2022/08/02 03:01:45;;;;;;;;;;;;;;;17.27;82.72;96681.69;5075146;28;19974;-73
2022/08/02 03:04:11;;;;;;;;;;;;;;;17.25;82.99;96673.19;5057751;28;20334;-73
2022/08/02 03:06:38;;;;;;;;;;;;;;;17.21;83.33;96688.78;5074903;28;19960;-73
2022/08/02 03:09:04;;;;;;;;;;;;;;;17.19;83.14;96687.47;5074314;28;19967;-74
2022/08/02 03:11:30;;;;;;;;;;;;;;;17.16;83.08;96682.69;5074583;28;20448;-74
2022/08/02 03:13:58;;;;;;;;;;;;;;;17.14;82.89;96690.09;5074727;28;19973;-74
2022/08/02 03:16:29;;;;;;;;;;;;;;;17.12;82.30;96692.97;5074513;28;19960;-73
2022/08/02 03:18:56;;;;;;;;;;;;;;;17.09;82.60;96690.03;5074883;28;19965;-73
2022/08/02 03:21:22;;;;;;;;;;;;;;;17.07;83.48;96690.28;5074643;28;19980;-73
2022/08/02 03:23:48;;;;;;;;;;;;;;;17.06;83.56;96690.53;5074718;28;19967;-73
2022/08/02 03:26:14;;;;;;;;;;;;;;;17.04;83.08;96698.72;5074570;28;19968;-73
2022/08/02 03:28:41;;;;;;;;;;;;;;;17.02;83.22;96695.53;5074519;28;20420;-73
2022/08/02 03:31:07;;;;;;;;;;;;;;;16.99;83.08;96696.84;5074308;28;20445;-73
2022/08/02 03:33:34;;;;;;;;;;;;;;;16.97;82.77;96700.81;5074415;28;20010;-73
2022/08/02 03:36:04;;;;;;;;;;;;;;;16.93;83.32;96694.41;5074272;28;19974;-73
2022/08/02 03:38:31;;;;;;;;;;;;;;;16.90;83.08;96694.91;5074250;28;19979;-73
2022/08/02 03:40:57;;;;;;;;;;;;;;;16.88;83.04;96695.16;5056238;28;19974;-73
2022/08/02 03:43:24;;;;;;;;;;;;;;;16.83;83.06;96700.41;5074299;28;19969;-73
2022/08/02 03:45:50;;;;;;;;;;;;;;;16.81;82.34;96700.66;5074222;28;19978;-73
2022/08/02 03:48:17;;;;;;;;;;;;;;;16.80;82.06;96703.53;5074433;28;19971;-73
2022/08/02 03:50:45;;;;;;;;;;;;;;;16.80;82.19;96707.00;5073964;28;20462;-73
2022/08/02 03:53:12;;;;;;;;;;;;;;;16.80;82.63;96706.19;5073764;28;20320;-73
2022/08/02 03:55:39;;;;;;;;;;;;;;;16.78;83.38;96710.94;5073763;28;19968;-74
2022/08/02 03:58:05;;;;;;;;;;;;;;;16.78;83.07;96710.94;5074179;28;20326;-73
2022/08/02 04:00:31;;;;;;;;;;;;;;;16.76;83.43;96707.75;5073741;28;19983;-73
2022/08/02 04:02:57;;;;;;;;;;;;;;;16.73;83.44;96709.03;5073849;28;20334;-74
2022/08/02 04:05:23;;;;;;;;;;;;;;;16.71;83.37;96705.81;5073412;28;19975;-73
2022/08/02 04:07:49;;;;;;;;;;;;;;;16.72;83.35;96722.53;5074102;28;19970;-73
2022/08/02 04:10:16;;;;;;;;;;;;;;;16.71;83.28;96716.41;5073886;28;19959;-74
2022/08/02 04:12:42;;;;;;;;;;;;;;;16.73;83.90;96714.31;5073780;28;19987;-74
2022/08/02 04:15:08;;;;;;;;;;;;;;;16.74;83.64;96717.78;5073812;28;19961;-73
2022/08/02 04:17:36;;;;;;;;;;;;;;;16.74;84.03;96725.72;5073678;28;19962;-73
2022/08/02 04:20:04;;;;;;;;;;;;;;;16.73;83.44;96719.63;5073755;28;19964;-73
2022/08/02 04:22:32;;;;;;;;;;;;;;;16.76;83.75;96727.06;5073782;28;20425;-73
2022/08/02 04:25:00;;;;;;;;;;;;;;;16.78;83.78;96724.19;5073502;28;19971;-73
2022/08/02 04:27:26;;;;;;;;;;;;;;;16.78;85.57;96735.56;5073670;28;19967;-73
2022/08/02 04:29:53;;;;;;;;;;;;;;;16.79;85.82;96731.84;5073584;28;20347;-73
2022/08/02 04:32:20;;;;;;;;;;;;;;;16.79;84.68;96728.41;5073747;28;19973;-73
2022/08/02 04:34:46;;;;;;;;;;;;;;;16.80;84.17;96728.22;5073473;28;19963;-73
2022/08/02 04:37:12;;;;;;;;;;;;;;;16.83;85.22;96735.63;5073624;28;19970;-74
2022/08/02 04:39:42;;;;;;;;;;;;;;;16.84;85.32;96726.66;5073511;28;19965;-73
2022/08/02 04:42:08;;;;;;;;;;;;;;;16.89;85.05;96738.34;5073324;28;19986;-73
2022/08/02 04:44:34;;;;;;;;;;;;;;;16.93;86.05;96734.16;5073830;28;19967;-72
2022/08/02 04:47:04;;;;;;;;;;;;;;;17.06;86.62;96735.59;5073437;28;20067;-73
2022/08/02 04:49:30;;;;;;;;;;;;;;;17.22;84.75;96743.41;5073351;28;19975;-72
2022/08/02 04:51:56;;;;;;;;;;;;;;;17.33;84.08;96743.50;5073358;28;19967;-75
2022/08/02 04:54:24;;;;;;;;;;;;;;;17.40;84.17;96744.88;5073314;28;20028;-73
2022/08/02 04:56:50;;;;;;;;;;;;;;;17.54;84.06;96739.94;5072695;28;19964;-73
2022/08/02 04:59:16;;;;;;;;;;;;;;;17.65;83.91;96746.88;5073281;28;19969;-74
2022/08/02 05:01:43;;;;;;;;;;;;;;;17.77;82.99;96743.25;5073693;28;20471;-73
2022/08/02 05:04:09;;;;;;;;;;;;;;;17.87;82.39;96747.84;5073258;28;20455;-73
2022/08/02 05:06:34;;;;;;;;;;;;;;;17.98;81.98;96739.69;5076537;28;19959;-73
2022/08/02 05:09:00;;;;;;;;;;;;;;;18.19;82.05;96737.94;5043245;28;19966;-73
2022/08/02 05:11:26;;;;;;;;;;;;;;;18.26;81.13;96738.47;5076883;28;19974;-73
2022/08/02 05:13:52;;;;;;;;;;;;;;;18.40;80.55;96738.00;5059480;28;20006;-73
2022/08/02 05:16:18;;;;;;;;;;;;;;;18.63;79.71;96729.56;5076921;28;19971;-73
2022/08/02 05:18:44;;;;;;;;;;;;;;;18.85;79.18;96728.56;5076983;28;20024;-73
2022/08/02 05:21:10;;;;;;;;;;;;;;;18.92;78.17;96725.66;5076842;28;19985;-73
2022/08/02 05:23:36;;;;;;;;;;;;;;;18.79;78.82;96735.75;5077182;28;19972;-73
2022/08/02 05:26:02;;;;;;;;;;;;;;;18.61;78.07;96737.00;5077360;28;20500;-73
2022/08/02 05:28:28;;;;;;;;;;;;;;;18.57;78.36;96741.25;5077070;28;19971;-73
2022/08/02 05:30:54;;;;;;;;;;;;;;;18.60;78.46;96737.25;5076748;28;20027;-73
2022/08/02 05:33:20;;;;;;;;;;;;;;;18.48;78.98;96737.50;5076873;28;20045;-73
2022/08/02 05:35:45;;;;;;;;;;;;;;;18.37;79.22;96739.34;5076513;28;20011;-73
2022/08/02 05:38:11;;;;;;;;;;;;;;;18.31;80.29;96734.25;5076812;28;20389;-73
2022/08/02 05:40:37;;;;;;;;;;;;;;;18.13;80.73;96735.53;5075955;28;20015;-75
2022/08/02 05:43:10;;;;;;;;;;;;;;;17.96;83.44;96739.16;5076835;28;19967;-72
2022/08/02 05:45:36;;;;;;;;;;;;;;;18.13;82.51;96740.81;5076458;28;19973;-74
2022/08/02 05:48:02;;;;;;;;;;;;;;;18.54;81.26;96740.97;5076264;28;20426;-75
2022/08/02 05:50:27;;;;;;;;;;;;;;;19.02;80.48;96736.31;5076418;28;19965;-73
2022/08/02 05:53:08;;;;;;;;;;;;;;;19.41;77.75;96741.91;5076465;28;19975;-73
2022/08/02 05:55:38;;;;;;;;;;;;;;;19.70;76.30;96743.19;5064022;28;19963;-73
2022/08/02 05:58:07;;;;;;;;;;;;;;;19.92;75.92;96735.72;5076598;28;19967;-73
2022/08/02 06:00:35;;;;;;;;;;;;;;;19.88;74.63;96737.31;5076055;28;19952;-74
2022/08/02 06:03:24;;;;;;;;;;;;;;;19.92;74.72;96743.69;5076189;28;19968;-73
2022/08/02 06:05:58;;;;;;;;;;;;;;;19.97;74.15;96738.38;5065372;28;19971;-73
2022/08/02 06:08:37;;;;;;;;;;;;;;;20.22;74.51;96734.00;5066414;28;19961;-73
2022/08/02 06:11:05;;;;;;;;;;;;;;;20.42;72.69;96725.16;5065041;28;19967;-73
2022/08/02 06:13:31;;;;;;;;;;;;;;;20.27;72.49;96734.81;5069981;28;20005;-73
2022/08/02 06:15:58;;;;;;;;;;;;;;;20.23;73.31;96732.97;5075591;28;20358;-73
2022/08/02 06:18:27;;;;;;;;;;;;;;;20.39;73.94;96739.00;5074312;28;20227;-73
2022/08/02 06:20:54;;;;;;;;;;;;;;;20.74;73.83;96737.25;5075732;28;19980;-73
2022/08/02 06:23:22;;;;;;;;;;;;;;;21.01;71.93;96732.28;5075683;28;19963;-73
2022/08/02 06:25:49;;;;;;;;;;;;;;;21.23;71.64;96726.53;5075411;28;19968;-73
2022/08/02 06:28:15;;;;;;;;;;;;;;;21.26;69.63;96717.94;5075633;28;19967;-73
2022/08/02 06:30:42;;;;;;;;;;;;;;;21.22;69.80;96727.59;5075823;28;19972;-73
2022/08/02 06:33:09;;;;;;;;;;;;;;;21.18;69.93;96726.56;5075745;28;19965;-73
2022/08/02 06:35:53;;;;;;;;;;;;;;;21.11;69.56;96735.97;5075565;28;19974;-73
2022/08/02 06:38:27;;;;;;;;;;;;;;;21.00;70.77;96738.69;5075664;28;19958;-73
2022/08/02 06:41:06;;;;;;;;;;;;;;;21.13;70.40;96733.81;5075911;28;19962;-73
2022/08/02 06:43:51;;;;;;;;;;;;;;;21.31;70.12;96724.31;5066159;28;19965;-73
2022/08/02 06:46:17;;;;;;;;;;;;;;;21.52;69.04;96715.09;5072254;28;19974;-73
2022/08/02 06:48:43;;;;;;;;;;;;;;;21.59;68.01;96709.44;5057424;28;20013;-74
2022/08/02 06:51:08;;;;;;;;;;;;;;;21.69;69.83;96725.31;5073680;28;19969;-73
2022/08/02 06:53:34;;;;;;;;;;;;;;;21.63;67.87;96713.13;5069021;28;19959;-73
2022/08/02 06:56:00;;;;;;;;;;;;;;;21.65;68.93;96724.31;5073372;28;19974;-73
2022/08/02 06:58:26;;;;;;;;;;;;;;;21.65;70.03;96735.00;5075364;28;20476;-73
2022/08/02 07:00:52;;;;;;;;;;;;;;;21.73;68.00;96709.56;5075318;28;19962;-73
2022/08/02 07:03:18;;;;;;;;;;;;;;;21.89;68.61;96727.00;5072418;28;19963;-73
2022/08/02 07:05:47;;;;;;;;;;;;;;;22.11;67.60;96715.78;5072156;28;19966;-73
2022/08/02 07:08:16;;;;;;;;;;;;;;;22.21;65.87;96714.88;5075170;28;20418;-73
2022/08/02 07:10:43;;;;;;;;;;;;;;;22.39;67.91;96730.19;5074313;28;19972;-74
2022/08/02 07:13:09;;;;;;;;;;;;;;;22.50;65.25;96710.25;5070024;28;20354;-73
2022/08/02 07:15:35;;;;;;;;;;;;;;;22.68;66.41;96723.94;5072451;28;19972;-73
2022/08/02 07:18:01;;;;;;;;;;;;;;;22.80;65.60;96726.94;5074348;28;19966;-73
2022/08/02 07:20:27;;;;;;;;;;;;;;;23.00;66.72;96731.22;5074436;28;20008;-73
2022/08/02 07:22:53;;;;;;;;;;;;;;;23.22;65.70;96719.13;5074496;28;19994;-73
2022/08/02 07:25:19;;;;;;;;;;;;;;;23.39;64.93;96713.22;5073088;28;20062;-73
2022/08/02 07:27:45;;;;;;;;;;;;;;;23.45;62.65;96696.78;5065104;28;19968;-73
2022/08/02 07:30:11;;;;;;;;;;;;;;;23.59;63.23;96704.06;5071287;28;20438;-73
2022/08/02 07:32:37;;;;;;;;;;;;;;;23.62;61.05;96679.34;5056540;28;20000;-73
2022/08/02 07:35:03;;;;;;;;;;;;;;;23.62;63.05;96708.81;5074176;28;19985;-73
2022/08/02 07:37:31;;;;;;;;;;;;;;;23.67;62.85;96700.69;5056532;28;19966;-73
2022/08/02 07:39:57;;;;;;;;;;;;;;;23.62;62.59;96698.91;5074315;28;19972;-73
2022/08/02 07:42:23;;;;;;;;;;;;;;;23.28;62.67;96699.22;5074057;28;20454;-73
2022/08/02 07:44:49;;;;;;;;;;;;;;;22.94;64.27;96715.53;5067149;28;20094;-73
2022/08/02 07:47:15;;;;;;;;;;;;;;;22.73;65.96;96739.09;5074273;28;19970;-73
2022/08/02 07:49:41;;;;;;;;;;;;;;;22.67;66.02;96738.38;5074103;28;20011;-75
2022/08/02 07:52:07;;;;;;;;;;;;;;;22.71;65.88;96742.06;5073051;28;20400;-73
2022/08/02 07:54:33;;;;;;;;;;;;;;;22.85;65.93;96744.81;5056184;28;20010;-73
2022/08/02 07:56:59;;;;;;;;;;;;;;;22.98;66.22;96736.06;5068902;28;19970;-74
2022/08/02 07:59:26;;;;;;;;;;;;;;;23.01;64.45;96722.13;5073880;28;19974;-73
2022/08/02 08:01:52;;;;;;;;;;;;;;;22.80;64.98;96732.28;5073684;28;20357;-73
2022/08/02 08:04:18;;;;;;;;;;;;;;;22.76;66.97;96752.66;5073922;28;20317;-73
2022/08/02 08:06:48;;;;;;;;;;;;;;;22.76;65.43;96743.88;5074046;28;20327;-73
2022/08/02 08:09:14;;;;;;;;;;;;;;;22.58;65.94;96750.81;5073818;28;19969;-73
2022/08/02 08:11:40;;;;;;;;;;;;;;;22.63;67.23;96753.41;5073079;28;20346;-73
2022/08/02 08:14:06;;;;;;;;;;;;;;;22.80;66.28;96748.34;5074023;28;19963;-73
2022/08/02 08:16:32;;;;;;;;;;;;;;;22.98;66.73;96749.44;5056132;28;20385;-73
2022/08/02 08:18:58;;;;;;;;;;;;;;;23.18;65.61;96742.19;5073218;28;19962;-74
2022/08/02 08:21:24;;;;;;;;;;;;;;;23.40;65.64;96738.91;5073727;28;19956;-73
2022/08/02 08:23:50;;;;;;;;;;;;;;;23.70;64.05;96719.63;5055970;28;20430;-73
2022/08/02 08:26:16;;;;;;;;;;;;;;;23.88;63.38;96720.69;5073751;28;20094;-73
2022/08/02 08:28:41;;;;;;;;;;;;;;;23.90;62.33;96710.47;5073782;28;19954;-73
2022/08/02 08:31:07;;;;;;;;;;;;;;;23.95;63.04;96717.59;5055885;28;20049;-73
2022/08/02 08:33:33;;;;;;;;;;;;;;;24.01;63.74;96732.50;5073415;28;19972;-73
2022/08/02 08:35:59;;;;;;;;;;;;;;;24.10;62.20;96719.19;5073803;28;19965;-73
2022/08/02 08:38:25;;;;;;;;;;;;;;;24.04;62.03;96713.16;5073717;28;20054;-73
2022/08/02 08:40:51;;;;;;;;;;;;;;;24.06;60.83;96699.44;5072915;28;19961;-73
2022/08/02 08:43:17;;;;;;;;;;;;;;;24.06;60.67;96702.13;5072780;28;19986;-73
2022/08/02 08:45:44;;;;;;;;;;;;;;;24.16;61.34;96707.28;5073572;28;19974;-72
2022/08/02 08:48:14;;;;;;;;;;;;;;;24.37;60.15;96694.25;5073371;28;19967;-72
2022/08/02 08:51:00;;;;;;;;;;;;;;;24.59;58.92;96679.31;5072672;28;19958;-73
2022/08/02 08:53:28;;;;;;;;;;;;;;;24.73;58.00;96671.25;5072825;28;20341;-73
2022/08/02 08:55:56;;;;;;;;;;;;;;;24.70;57.16;96659.25;5073507;28;19965;-73
2022/08/02 08:58:23;;;;;;;;;;;;;;;24.63;56.76;96657.00;5073438;28;19963;-73
2022/08/02 09:00:49;;;;;;;;;;;;;;;24.64;58.26;96668.50;5073147;28;19961;-72
2022/08/02 09:03:15;;;;;;;;;;;;;;;24.70;59.72;96675.34;5073169;28;19984;-73
2022/08/02 09:05:42;;;;;;;;;;;;;;;24.86;57.13;96665.03;5073305;28;19960;-73
2022/08/02 09:08:08;;;;;;;;;;;;;;;24.87;55.06;96643.28;5073035;28;19965;-73
2022/08/02 09:10:41;;;;;;;;;;;;;;;24.81;57.35;96654.44;5073294;28;20043;-73
2022/08/02 09:13:09;;;;;;;;;;;;;;;24.91;57.40;96657.66;5073284;28;19988;-73
2022/08/02 09:15:36;;;;;;;;;;;;;;;25.05;56.51;96646.06;5073373;28;20303;-73
2022/08/02 09:18:03;;;;;;;;;;;;;;;25.19;55.65;96643.31;5059812;28;19963;-73
2022/08/02 09:20:29;;;;;;;;;;;;;;;25.28;55.89;96652.22;5054980;28;19964;-73
2022/08/02 09:23:05;;;;;;;;;;;;;;;25.37;54.20;96620.84;5072905;28;20452;-73
2022/08/02 09:25:31;;;;;;;;;;;;;;;25.37;54.08;96617.38;5073331;28;20325;-73
2022/08/02 09:27:57;;;;;;;;;;;;;;;25.38;52.68;96600.16;5074141;22;20026;-74
2022/08/02 09:30:25;;;;;;;;;;;;;;;25.48;54.02;96622.16;5047524;28;19980;-73
2022/08/02 09:32:51;;;;;;;;;;;;;;;25.56;53.96;96623.31;5033411;28;19982;-74
2022/08/02 09:35:30;;;;;;;;;;;;;;;25.62;53.94;96627.44;5051738;28;20370;-74
2022/08/02 09:38:07;;;;;;;;;;;;;;;25.66;52.60;96606.91;5040318;28;19957;-72
2022/08/02 09:40:37;;;;;;;;;;;;;;;25.66;51.46;96611.47;5049099;28;19960;-73
2022/08/02 09:43:03;;;;;;;;;;;;;;;25.47;51.73;96609.03;5043177;28;19972;-73
2022/08/02 09:45:30;;;;;;;;;;;;;;;25.13;53.18;96629.22;5044937;28;20464;-73
2022/08/02 09:47:56;;;;;;;;;;;;;;;24.90;53.24;96636.50;5038886;28;19956;-73
2022/08/02 09:50:22;;;;;;;;;;;;;;;24.66;54.21;96650.22;5043150;28;19961;-74
2022/08/02 09:52:48;;;;;;;;;;;;;;;24.41;55.97;96655.03;5064047;28;19968;-74
2022/08/02 09:55:14;;;;;;;;;;;;;;;24.35;56.39;96656.22;5043802;28;19959;-75
2022/08/02 09:57:41;;;;;;;;;;;;;;;24.59;57.78;96676.66;5040529;28;20379;-74
2022/08/02 10:00:11;;;;;;;;;;;;;;;24.81;54.82;96641.03;5048082;28;19965;-75
2022/08/02 10:02:36;;;;;;;;;;;;;;;25.08;57.49;96669.63;5045812;28;20298;-74
2022/08/02 10:05:02;;;;;;;;;;;;;;;25.39;56.63;96669.66;5045769;28;19974;-74
2022/08/02 10:07:29;;;;;;;;;;;;;;;25.66;54.59;96643.69;5045682;28;19968;-74
2022/08/02 10:09:55;;;;;;;;;;;;;;;25.91;54.78;96642.22;5047143;28;19968;-74
2022/08/02 10:12:21;;;;;;;;;;;;;;;26.09;52.35;96618.88;5042967;28;19971;-72
2022/08/02 10:14:50;;;;;;;;;;;;;;;26.30;52.33;96619.06;5046641;28;19958;-72
2022/08/02 10:17:18;;;;;;;;;;;;;;;26.47;51.92;96613.69;5047262;28;19973;-72
2022/08/02 10:19:44;;;;;;;;;;;;;;;26.65;50.64;96597.59;5063009;28;19969;-72
2022/08/02 10:22:11;;;;;;;;;;;;;;;26.60;48.39;96586.97;5045501;28;19978;-72
2022/08/02 10:24:38;;;;;;;;;;;;;;;26.47;50.50;96612.91;5042903;28;19956;-73
2022/08/02 10:27:06;;;;;;;;;;;;;;;26.48;49.84;96617.16;5049799;28;19990;-73
2022/08/02 10:29:36;;;;;;;;;;;;;;;26.63;51.84;96622.13;5046592;28;19987;-73
2022/08/02 10:32:09;;;;;;;;;;;;;;;26.75;53.18;96632.22;5046653;28;19968;-73
2022/08/02 10:34:53;;;;;;;;;;;;;;;26.86;47.92;96576.19;5043505;28;19977;-73
2022/08/02 10:37:19;;;;;;;;;;;;;;;26.82;50.35;96602.16;5037433;28;19959;-73
2022/08/02 10:39:45;;;;;;;;;;;;;;;26.84;50.34;96602.63;5046536;28;19952;-73
2022/08/02 10:42:12;;;;;;;;;;;;;;;26.82;48.87;96586.81;5043246;28;20006;-73
2022/08/02 10:44:38;;;;;;;;;;;;;;;26.88;49.32;96601.66;5045916;28;19964;-73
2022/08/02 10:47:13;;;;;;;;;;;;;;;27.03;48.02;96578.06;5042552;28;20069;-73
2022/08/02 10:49:58;;;;;;;;;;;;;;;27.18;48.16;96599.06;5047671;28;20322;-73
2022/08/02 10:52:25;;;;;;;;;;;;;;;27.31;46.69;96573.06;5052037;28;19969;-73
2022/08/02 10:54:54;;;;;;;;;;;;;;;27.03;48.06;96596.88;5058256;28;19956;-73
2022/08/02 10:57:20;;;;;;;;;;;;;;;26.79;47.11;96587.41;5041414;28;19969;-73
2022/08/02 10:59:46;;;;;;;;;;;;;;;26.72;47.01;96592.50;5043995;28;19967;-73
2022/08/02 11:02:12;;;;;;;;;;;;;;;26.61;44.42;96569.75;5047614;28;19981;-73
2022/08/02 11:04:38;;;;;;;;;;;;;;;26.66;49.19;96631.44;5044316;28;20415;-73
2022/08/02 11:07:13;;;;;;;;;;;;;;;26.78;47.47;96604.69;5042694;28;19963;-73
2022/08/02 11:09:39;;;;;;;;;;;;;;;26.87;44.00;96577.75;5044409;28;19952;-73
2022/08/02 11:12:06;;;;;;;;;;;;;;;27.02;47.74;96608.75;5044899;28;20352;-73
2022/08/02 11:14:36;;;;;;;;;;;;;;;27.19;47.72;96597.94;5047278;28;19983;-73
2022/08/02 11:17:04;;;;;;;;;;;;;;;27.47;47.20;96600.25;5044970;28;19963;-73
2022/08/02 11:19:31;;;;;;;;;;;;;;;27.77;47.79;96597.56;5040724;28;19969;-73
2022/08/02 11:22:04;;;;;;;;;;;;;;;28.03;47.14;96592.03;5047233;28;20454;-73
2022/08/02 11:24:31;;;;;;;;;;;;;;;28.12;45.25;96585.47;5044984;28;19961;-73
2022/08/02 11:26:58;;;;;;;;;;;;;;;28.15;44.82;96584.03;5043971;28;19965;-73
2022/08/02 11:29:38;;;;;;;;;;;;;;;28.22;45.14;96586.19;5040942;28;19981;-73
2022/08/02 11:32:07;;;;;;;;;;;;;;;28.35;44.79;96606.75;5057945;28;20473;-73
2022/08/02 11:34:33;;;;;;;;;;;;;;;28.56;44.11;96595.16;5046459;28;19971;-73
2022/08/02 11:36:59;;;;;;;;;;;;;;;28.79;42.73;96593.69;5046025;28;19971;-73
2022/08/02 11:39:25;;;;;;;;;;;;;;;29.00;43.56;96603.63;5040758;28;19957;-73
2022/08/02 11:41:52;;;;;;;;;;;;;;;28.87;41.41;96597.41;5040136;28;19964;-73
2022/08/02 11:44:18;;;;;;;;;;;;;;;28.84;42.53;96604.25;5035846;28;19973;-73
2022/08/02 11:46:52;;;;;;;;;;;;;;;28.87;40.93;96597.41;5038936;28;19976;-73
2022/08/02 11:49:18;;;;;;;;;;;;;;;28.80;40.52;96607.97;5047739;28;19964;-73
2022/08/02 11:52:10;;;;;;;;;;;;;;;28.88;41.14;96609.78;5044496;28;19977;-73
2022/08/02 11:54:39;;;;;;;;;;;;;;;28.93;41.35;96604.97;5035965;28;20326;-73
2022/08/02 11:57:16;;;;;;;;;;;;;;;28.88;40.33;96590.91;5039999;28;20342;-73
2022/08/02 11:59:42;;;;;;;;;;;;;;;28.43;39.24;96595.09;5049284;28;19968;-73
2022/08/02 12:02:08;;;;;;;;;;;;;;;28.20;40.70;96605.44;5042102;28;19983;-73
2022/08/02 12:04:35;;;;;;;;;;;;;;;28.33;38.46;96593.56;5039557;28;19956;-72
2022/08/02 12:07:01;;;;;;;;;;;;;;;28.42;39.63;96592.72;5045311;28;19965;-73
2022/08/02 12:09:28;;;;;;;;;;;;;;;28.50;42.13;96608.84;5050346;28;19981;-73
2022/08/02 12:11:54;;;;;;;;;;;;;;;28.45;39.94;96598.22;5042023;28;19957;-73
2022/08/02 12:14:22;;;;;;;;;;;;;;;28.39;38.24;96583.38;5039784;28;19978;-73
2022/08/02 12:19:33;;;;;;;;;;;;;;;28.91;39.98;96601.81;5045392;28;19962;-73
2022/08/02 12:22:25;;;;;;;;;;;;;;;29.16;39.78;96596.50;5039568;28;20411;-73
2022/08/02 12:24:52;;;;;;;;;;;;;;;29.24;38.93;96590.22;5026175;28;19967;-73
2022/08/02 12:27:30;;;;;;;;;;;;;;;28.86;39.20;96587.75;5043995;28;20419;-73
2022/08/02 12:30:09;;;;;;;;;;;;;;;28.64;39.99;96597.00;5043859;28;19972;-73
2022/08/02 12:32:36;;;;;;;;;;;;;;;28.69;37.65;96583.31;5044589;28;19960;-73
2022/08/02 12:35:06;;;;;;;;;;;;;;;28.88;39.17;96588.19;5047749;28;19968;-73
2022/08/02 12:37:33;;;;;;;;;;;;;;;28.84;38.74;96592.69;5027365;28;19953;-73
2022/08/02 12:40:16;;;;;;;;;;;;;;;28.82;40.30;96597.63;5041898;28;19960;-73
2022/08/02 12:42:45;;;;;;;;;;;;;;;28.77;40.70;96604.03;5041095;28;19974;-73
2022/08/02 12:45:11;;;;;;;;;;;;;;;28.66;40.06;96597.44;5044648;28;20410;-73
2022/08/02 12:47:47;;;;;;;;;;;;;;;28.50;41.22;96595.38;5043411;28;19956;-73
2022/08/02 12:50:19;;;;;;;;;;;;;;;28.47;38.12;96576.31;5046535;28;20313;-73
2022/08/02 12:52:45;;;;;;;;;;;;;;;28.32;39.33;96575.00;5046670;28;19959;-73
2022/08/02 12:55:19;;;;;;;;;;;;;;;28.11;39.18;96570.41;5038622;28;19971;-73